Time;durP1;ratioP1;P1;durP2;ratioP2;P2;SDS_P1;SDS_P2;PMS_P1;PMS_P2;Temp;Humidity;BMP_temperature;BMP_pressure;BME280_temperature;BME280_humidity;BME280_pressure;Samples;Min_cycle;Max_cycle;Signal;HPM_P1;HPM_P2
2023/12/25 00:00:11;;;;;;;0.60;0.30;;;11.70;67.90;;;;;;4952347;28;20027;-63
2023/12/25 00:02:37;;;;;;;0.65;0.30;;;11.70;68.00;;;;;;4943819;28;20150;-62
2023/12/25 00:05:02;;;;;;;0.77;0.20;;;11.70;68.60;;;;;;4955140;28;20571;-62
2023/12/25 00:07:28;;;;;;;0.52;0.40;;;11.70;68.80;;;;;;4951754;28;20031;-62
2023/12/25 00:09:54;;;;;;;0.93;0.40;;;11.60;67.90;;;;;;4947481;28;20499;-60
2023/12/25 00:12:20;;;;;;;0.30;0.30;;;11.60;68.60;;;;;;4948250;28;20031;-62
2023/12/25 00:14:46;;;;;;;0.43;0.32;;;11.60;68.60;;;;;;4947722;28;20535;-61
2023/12/25 00:17:13;;;;;;;0.90;0.25;;;11.60;68.50;;;;;;4953147;28;20032;-62
2023/12/25 00:19:38;;;;;;;1.08;0.40;;;11.60;68.70;;;;;;4950273;28;20028;-62
2023/12/25 00:22:04;;;;;;;0.40;0.38;;;11.60;68.40;;;;;;4951071;28;20451;-63
2023/12/25 00:24:29;;;;;;;0.30;0.30;;;11.60;69.00;;;;;;4949892;28;20118;-63
2023/12/25 00:26:55;;;;;;;0.32;0.28;;;11.60;68.40;;;;;;4953771;28;20038;-62
2023/12/25 00:29:20;;;;;;;0.82;0.30;;;11.50;68.70;;;;;;4951751;28;20031;-62
2023/12/25 00:31:47;;;;;;;0.20;0.20;;;11.50;69.00;;;;;;4956790;28;20037;-62
2023/12/25 00:34:13;;;;;;;0.50;0.30;;;11.50;68.80;;;;;;4949080;28;20047;-63
2023/12/25 00:36:38;;;;;;;0.30;0.30;;;11.40;69.00;;;;;;4946980;28;20119;-62
2023/12/25 00:39:04;;;;;;;0.20;0.20;;;11.40;68.80;;;;;;4953124;28;20130;-62
2023/12/25 00:41:31;;;;;;;0.60;0.30;;;11.40;68.20;;;;;;4952098;28;20035;-61
2023/12/25 00:44:00;;;;;;;0.43;0.40;;;11.40;68.70;;;;;;4949154;28;20031;-62
2023/12/25 00:46:26;;;;;;;0.32;0.30;;;11.40;68.60;;;;;;4951385;28;20147;-63
2023/12/25 00:48:52;;;;;;;0.50;0.45;;;11.40;68.80;;;;;;4952080;28;20067;-61
2023/12/25 00:51:17;;;;;;;0.25;0.25;;;11.40;68.20;;;;;;4950866;28;20070;-61
2023/12/25 00:53:43;;;;;;;0.22;0.22;;;11.30;68.30;;;;;;4947118;28;20725;-62
2023/12/25 00:56:09;;;;;;;2.10;0.35;;;11.30;68.30;;;;;;4949761;28;20031;-62
2023/12/25 00:58:35;;;;;;;0.60;0.40;;;11.30;68.30;;;;;;4946388;28;20047;-62
2023/12/25 01:01:01;;;;;;;1.00;0.30;;;11.30;67.80;;;;;;4947586;28;20039;-63
2023/12/25 01:03:26;;;;;;;0.28;0.20;;;11.30;68.30;;;;;;4951642;28;20534;-61
2023/12/25 01:05:52;;;;;;;0.35;0.30;;;11.30;68.00;;;;;;4947620;28;20035;-61
2023/12/25 01:08:17;;;;;;;0.32;0.30;;;11.30;68.20;;;;;;4946680;28;20039;-61
2023/12/25 01:10:43;;;;;;;0.32;0.30;;;11.30;68.10;;;;;;4945305;28;20035;-61
2023/12/25 01:13:09;;;;;;;0.38;0.30;;;11.20;68.30;;;;;;4950931;28;20043;-63
2023/12/25 01:15:34;;;;;;;0.32;0.30;;;11.20;68.30;;;;;;4946287;28;20031;-62
2023/12/25 01:18:00;;;;;;;0.30;0.30;;;11.20;68.10;;;;;;4948266;28;20035;-62
2023/12/25 01:20:25;;;;;;;1.30;0.30;;;11.20;68.30;;;;;;4943816;28;20059;-61
2023/12/25 01:22:51;;;;;;;0.32;0.20;;;11.20;68.20;;;;;;4947223;28;20105;-60
2023/12/25 01:25:17;;;;;;;0.30;0.28;;;11.10;68.20;;;;;;4947700;28;20495;-62
2023/12/25 01:27:42;;;;;;;0.32;0.30;;;11.10;68.20;;;;;;4947487;28;20122;-62
2023/12/25 01:30:10;;;;;;;0.38;0.30;;;11.10;68.30;;;;;;4948476;28;20459;-61
2023/12/25 01:32:36;;;;;;;0.75;0.30;;;11.10;67.80;;;;;;4947380;28;20044;-61
2023/12/25 01:35:02;;;;;;;0.70;0.40;;;11.10;68.00;;;;;;4946806;28;20042;-61
2023/12/25 01:37:27;;;;;;;0.65;0.30;;;11.10;68.10;;;;;;4946449;28;20042;-62
2023/12/25 01:39:53;;;;;;;0.20;0.20;;;11.10;68.10;;;;;;4948218;28;20496;-61
2023/12/25 01:42:18;;;;;;;0.30;0.30;;;11.10;68.00;;;;;;4942342;28;20031;-62
2023/12/25 01:44:46;;;;;;;0.40;0.20;;;11.10;68.30;;;;;;4945382;28;20031;-62
2023/12/25 01:47:12;;;;;;;0.40;0.30;;;11.10;67.80;;;;;;4951797;28;20027;-61
2023/12/25 01:49:38;;;;;;;0.90;0.40;;;11.10;67.80;;;;;;4951578;28;20114;-61
2023/12/25 01:52:04;;;;;;;0.22;0.22;;;11.10;67.80;;;;;;4950261;28;20118;-60
2023/12/25 01:54:32;;;;;;;0.50;0.40;;;11.10;68.20;;;;;;4946445;28;20050;-62
2023/12/25 01:56:58;;;;;;;1.40;0.32;;;11.10;68.20;;;;;;4947248;28;20032;-62
2023/12/25 01:59:28;;;;;;;0.30;0.30;;;11.10;68.20;;;;;;4951032;28;20073;-60
2023/12/25 02:01:54;;;;;;;0.38;0.25;;;11.10;69.10;;;;;;4943613;28;20046;-59
2023/12/25 02:04:19;;;;;;;0.25;0.20;;;11.10;68.10;;;;;;4947353;28;20040;-62
2023/12/25 02:06:46;;;;;;;0.95;0.38;;;11.10;67.80;;;;;;4946379;28;20035;-62
2023/12/25 02:09:13;;;;;;;2.30;0.25;;;11.10;67.50;;;;;;4949849;28;20047;-61
2023/12/25 02:11:41;;;;;;;0.80;0.40;;;11.00;67.90;;;;;;4946565;28;20036;-62
2023/12/25 02:14:08;;;;;;;0.30;0.20;;;11.10;66.90;;;;;;4946640;28;20094;-62
2023/12/25 02:16:36;;;;;;;0.63;0.30;;;11.00;67.40;;;;;;4946432;28;20047;-62
2023/12/25 02:19:03;;;;;;;0.70;0.30;;;11.00;67.60;;;;;;4949966;28;20452;-61
2023/12/25 02:21:29;;;;;;;0.52;0.30;;;11.00;67.20;;;;;;4947841;28;20415;-62
2023/12/25 02:23:59;;;;;;;0.45;0.30;;;11.00;67.10;;;;;;4949981;28;20063;-63
2023/12/25 02:26:25;;;;;;;0.43;0.40;;;11.00;66.90;;;;;;4948845;28;20463;-61
2023/12/25 02:28:50;;;;;;;1.15;0.40;;;11.00;67.10;;;;;;4950825;28;20114;-62
2023/12/25 02:31:17;;;;;;;1.58;0.30;;;11.00;66.50;;;;;;4949981;28;20036;-62
2023/12/25 02:33:43;;;;;;;1.08;0.32;;;11.00;66.70;;;;;;4951156;28;20147;-60
2023/12/25 02:36:08;;;;;;;0.60;0.45;;;11.00;66.90;;;;;;4954842;28;20121;-62
2023/12/25 02:38:34;;;;;;;1.83;0.50;;;11.00;66.60;;;;;;4949797;28;20043;-60
2023/12/25 02:40:59;;;;;;;0.30;0.30;;;11.00;66.90;;;;;;4948899;28;20035;-62
2023/12/25 02:43:25;;;;;;;0.30;0.22;;;11.00;66.60;;;;;;4950206;28;20046;-61
2023/12/25 02:45:51;;;;;;;0.65;0.30;;;11.00;66.70;;;;;;4949993;28;20622;-61
2023/12/25 02:48:16;;;;;;;0.68;0.30;;;11.00;66.20;;;;;;4952684;28;20082;-63
2023/12/25 02:50:42;;;;;;;0.40;0.20;;;11.00;66.30;;;;;;4949107;28;20344;-63
2023/12/25 02:53:07;;;;;;;0.32;0.28;;;11.00;66.50;;;;;;4950908;28;20529;-63
2023/12/25 02:55:33;;;;;;;0.40;0.30;;;10.90;65.60;;;;;;4948375;28;20638;-63
2023/12/25 02:57:59;;;;;;;0.65;0.30;;;11.00;65.20;;;;;;4953584;28;20031;-63
2023/12/25 03:00:24;;;;;;;0.30;0.20;;;10.90;65.80;;;;;;4948129;28;20039;-62
2023/12/25 03:02:50;;;;;;;0.32;0.32;;;10.90;65.30;;;;;;4948478;28;20039;-63
2023/12/25 03:05:16;;;;;;;0.45;0.25;;;11.00;65.50;;;;;;4950345;28;20027;-63
2023/12/25 03:07:41;;;;;;;1.05;0.20;;;11.00;64.80;;;;;;4948359;28;20228;-61
2023/12/25 03:10:07;;;;;;;1.73;0.20;;;11.00;65.20;;;;;;4949452;28;20035;-62
2023/12/25 03:12:33;;;;;;;0.30;0.30;;;11.00;65.10;;;;;;4951554;28;20043;-61
2023/12/25 03:14:58;;;;;;;0.20;0.20;;;11.00;64.10;;;;;;4949309;28;20032;-62
2023/12/25 03:17:24;;;;;;;0.55;0.20;;;10.90;62.50;;;;;;4963218;28;20484;-63
2023/12/25 03:19:49;;;;;;;0.17;0.17;;;10.90;63.40;;;;;;4949266;28;20027;-62
2023/12/25 03:22:15;;;;;;;0.20;0.20;;;11.00;63.00;;;;;;4952578;28;20055;-62
2023/12/25 03:24:40;;;;;;;0.28;0.20;;;11.00;63.00;;;;;;4947780;28;20035;-62
2023/12/25 03:27:06;;;;;;;0.30;0.30;;;11.00;62.70;;;;;;4950715;28;20398;-62
2023/12/25 03:29:32;;;;;;;0.40;0.20;;;11.00;63.00;;;;;;4948948;28;20032;-62
2023/12/25 03:31:57;;;;;;;0.80;0.28;;;11.00;62.30;;;;;;4949387;28;20070;-62
2023/12/25 03:34:23;;;;;;;0.28;0.28;;;11.00;62.20;;;;;;4949076;28;20039;-62
2023/12/25 03:36:48;;;;;;;0.50;0.30;;;11.00;62.40;;;;;;4951124;28;20042;-62
2023/12/25 03:39:14;;;;;;;0.95;0.20;;;11.00;62.50;;;;;;4953605;28;20070;-62
2023/12/25 03:41:40;;;;;;;0.73;0.30;;;11.00;62.00;;;;;;4950386;28;20070;-60
2023/12/25 03:44:05;;;;;;;0.38;0.30;;;11.00;61.70;;;;;;4952135;28;20410;-61
2023/12/25 03:46:31;;;;;;;1.17;0.20;;;11.00;61.00;;;;;;4949267;28;20038;-61
2023/12/25 03:48:56;;;;;;;0.60;0.20;;;11.00;61.70;;;;;;4950272;28;20070;-62
2023/12/25 03:51:22;;;;;;;0.28;0.28;;;11.00;61.50;;;;;;4948265;28;20554;-61
2023/12/25 03:53:48;;;;;;;0.22;0.20;;;11.00;61.30;;;;;;4948118;28;20138;-62
2023/12/25 03:56:17;;;;;;;0.15;0.15;;;11.00;60.30;;;;;;4950423;28;20043;-62
2023/12/25 03:58:43;;;;;;;0.32;0.20;;;11.00;60.40;;;;;;4949756;28;20047;-62
2023/12/25 04:01:09;;;;;;;0.40;0.17;;;11.00;60.60;;;;;;4952747;28;20071;-62
2023/12/25 04:03:35;;;;;;;1.17;0.20;;;11.00;60.50;;;;;;4948328;28;20103;-60
2023/12/25 04:06:00;;;;;;;0.35;0.20;;;11.00;60.90;;;;;;4948004;28;20039;-62
2023/12/25 04:08:26;;;;;;;0.30;0.10;;;11.00;60.80;;;;;;4948310;28;20566;-62
2023/12/25 04:10:52;;;;;;;0.20;0.20;;;11.00;60.50;;;;;;4948253;28;20093;-62
2023/12/25 04:13:17;;;;;;;0.20;0.20;;;11.00;60.30;;;;;;4951377;28;20047;-62
2023/12/25 04:15:43;;;;;;;0.30;0.20;;;11.00;60.10;;;;;;4955802;28;20042;-61
2023/12/25 04:18:08;;;;;;;0.93;0.30;;;11.00;59.60;;;;;;4948155;28;20050;-62
2023/12/25 04:20:34;;;;;;;0.93;0.30;;;10.90;59.90;;;;;;4947856;28;20550;-61
2023/12/25 04:22:59;;;;;;;3.20;0.50;;;10.90;59.60;;;;;;4946365;28;20039;-61
2023/12/25 04:25:25;;;;;;;0.55;0.28;;;10.90;59.60;;;;;;4949974;28;20033;-62
2023/12/25 04:27:51;;;;;;;0.30;0.20;;;10.90;59.70;;;;;;4956758;28;20031;-61
2023/12/25 04:30:17;;;;;;;0.35;0.28;;;10.90;59.90;;;;;;4947385;28;20055;-61
2023/12/25 04:32:43;;;;;;;0.30;0.20;;;10.90;59.90;;;;;;4946560;28;20157;-62
2023/12/25 04:35:08;;;;;;;0.45;0.20;;;10.90;59.90;;;;;;4949040;28;20035;-60
2023/12/25 04:37:34;;;;;;;0.20;0.20;;;10.90;59.90;;;;;;4948234;28;20475;-62
2023/12/25 04:39:59;;;;;;;0.28;0.20;;;10.80;59.90;;;;;;4948851;28;20042;-61
2023/12/25 04:42:25;;;;;;;0.52;0.20;;;10.80;59.90;;;;;;4946060;28;20495;-62
2023/12/25 04:44:50;;;;;;;0.80;0.25;;;10.80;60.00;;;;;;4948073;28;20503;-62
2023/12/25 04:47:16;;;;;;;0.20;0.20;;;10.80;59.90;;;;;;4951188;28;20039;-63
2023/12/25 04:49:42;;;;;;;0.20;0.20;;;10.80;60.00;;;;;;4948043;28;20371;-62
2023/12/25 04:52:07;;;;;;;1.25;0.20;;;10.80;60.10;;;;;;4948181;28;20035;-62
2023/12/25 04:54:33;;;;;;;0.10;0.10;;;10.70;60.00;;;;;;4947797;28;20047;-62
2023/12/25 04:56:58;;;;;;;0.93;0.15;;;10.70;60.20;;;;;;4944416;28;20127;-60
2023/12/25 04:59:24;;;;;;;0.20;0.10;;;10.70;60.40;;;;;;4946581;28;20035;-62
2023/12/25 05:01:50;;;;;;;0.77;0.15;;;10.60;60.30;;;;;;4946448;28;20039;-60
2023/12/25 05:04:16;;;;;;;0.40;0.30;;;10.60;60.70;;;;;;4950027;28;20038;-62
2023/12/25 05:06:41;;;;;;;0.70;0.20;;;10.50;61.20;;;;;;4946229;28;20035;-62
2023/12/25 05:09:08;;;;;;;0.30;0.20;;;10.50;61.50;;;;;;4950293;28;20031;-62
2023/12/25 05:11:34;;;;;;;1.50;0.20;;;10.50;61.70;;;;;;4946077;28;20035;-62
2023/12/25 05:14:00;;;;;;;1.15;0.30;;;10.40;61.80;;;;;;4950640;28;20054;-61
2023/12/25 05:16:25;;;;;;;0.40;0.30;;;10.30;62.10;;;;;;4947641;28;20043;-61
2023/12/25 05:18:51;;;;;;;0.73;0.30;;;10.30;62.60;;;;;;4953517;28;20278;-61
2023/12/25 05:21:17;;;;;;;0.43;0.43;;;10.20;62.90;;;;;;4948097;28;20035;-62
2023/12/25 05:23:42;;;;;;;0.35;0.35;;;10.20;63.30;;;;;;4941661;28;20052;-63
2023/12/25 05:26:08;;;;;;;1.73;0.40;;;10.20;63.40;;;;;;4948132;28;20039;-63
2023/12/25 05:28:35;;;;;;;0.40;0.40;;;10.20;63.80;;;;;;4952418;28;20039;-63
2023/12/25 05:31:00;;;;;;;0.70;0.60;;;10.10;63.80;;;;;;4949497;28;20457;-62
2023/12/25 05:33:26;;;;;;;0.47;0.45;;;10.10;63.90;;;;;;4947248;28;20545;-62
2023/12/25 05:35:51;;;;;;;0.43;0.40;;;10.10;64.00;;;;;;4947142;28;20057;-62
2023/12/25 05:38:17;;;;;;;0.50;0.43;;;10.10;64.10;;;;;;4947429;28;20066;-63
2023/12/25 05:40:42;;;;;;;0.30;0.30;;;10.10;64.20;;;;;;4945491;28;20089;-62
2023/12/25 05:43:10;;;;;;;1.30;0.43;;;10.10;65.00;;;;;;4945930;28;20047;-61
2023/12/25 05:45:39;;;;;;;0.93;0.40;;;10.10;64.20;;;;;;4946966;28;20172;-62
2023/12/25 05:48:05;;;;;;;0.20;0.20;;;10.00;64.10;;;;;;4946824;28;20466;-62
2023/12/25 05:50:31;;;;;;;0.30;0.30;;;10.00;64.10;;;;;;4947057;28;20130;-62
2023/12/25 05:52:56;;;;;;;0.60;0.20;;;10.00;64.10;;;;;;4948542;28;20121;-62
2023/12/25 05:55:22;;;;;;;1.20;0.60;;;10.00;64.10;;;;;;4949177;28;20522;-60
2023/12/25 05:57:48;;;;;;;0.93;0.40;;;10.00;64.20;;;;;;4952110;28;20044;-62
2023/12/25 06:00:14;;;;;;;0.47;0.30;;;10.00;64.10;;;;;;4954416;28;20582;-62
2023/12/25 06:02:40;;;;;;;0.40;0.40;;;10.00;64.20;;;;;;4951522;28;20035;-62
2023/12/25 06:05:06;;;;;;;0.60;0.38;;;9.90;64.20;;;;;;4951168;28;20114;-62
2023/12/25 06:07:32;;;;;;;0.35;0.30;;;9.90;64.30;;;;;;4949591;28;20396;-60
2023/12/25 06:09:57;;;;;;;0.85;0.40;;;9.90;64.30;;;;;;4948999;28;20355;-62
2023/12/25 06:12:23;;;;;;;0.40;0.40;;;9.90;64.30;;;;;;4950105;28;20031;-62
2023/12/25 06:14:48;;;;;;;0.80;0.47;;;9.90;64.30;;;;;;4951311;28;20598;-62
2023/12/25 06:17:14;;;;;;;0.70;0.40;;;9.90;64.40;;;;;;4951868;28;20415;-61
2023/12/25 06:19:40;;;;;;;0.30;0.30;;;9.90;64.60;;;;;;4952902;28;20043;-62
2023/12/25 06:22:06;;;;;;;1.27;0.43;;;9.90;64.70;;;;;;4953799;28;20043;-62
2023/12/25 06:24:32;;;;;;;1.25;0.70;;;9.80;64.80;;;;;;4949716;28;20043;-62
2023/12/25 06:26:57;;;;;;;1.75;0.50;;;9.80;65.00;;;;;;4953665;28;20044;-62
2023/12/25 06:29:23;;;;;;;0.82;0.50;;;9.90;65.20;;;;;;4950155;28;20515;-62
2023/12/25 06:31:48;;;;;;;0.43;0.35;;;9.80;65.20;;;;;;4943540;28;20122;-60
2023/12/25 06:34:14;;;;;;;0.95;0.50;;;9.90;65.30;;;;;;4950574;28;20051;-62
2023/12/25 06:36:39;;;;;;;0.60;0.40;;;9.80;65.40;;;;;;4950517;28;20039;-63
2023/12/25 06:39:05;;;;;;;1.40;0.50;;;9.80;65.40;;;;;;4949604;28;20046;-61
2023/12/25 06:41:30;;;;;;;0.50;0.40;;;9.80;65.50;;;;;;4949391;28;20061;-62
2023/12/25 06:43:56;;;;;;;0.70;0.50;;;9.80;65.60;;;;;;4949865;28;20039;-62
2023/12/25 06:46:22;;;;;;;0.63;0.47;;;9.80;65.70;;;;;;4950468;28;20638;-62
2023/12/25 06:48:47;;;;;;;1.38;0.43;;;9.80;65.70;;;;;;4950097;28;20040;-62
2023/12/25 06:51:13;;;;;;;0.85;0.63;;;9.80;65.80;;;;;;4951637;28;20039;-62
2023/12/25 06:53:38;;;;;;;0.95;0.57;;;9.80;65.80;;;;;;4950398;28;20058;-61
2023/12/25 06:56:06;;;;;;;1.13;0.70;;;9.80;65.90;;;;;;4948268;28;20020;-61
2023/12/25 06:58:31;;;;;;;0.90;0.80;;;9.80;65.70;;;;;;4947532;28;20039;-62
2023/12/25 07:00:59;;;;;;;2.78;0.98;;;9.80;65.70;;;;;;4949891;28;20384;-62
2023/12/25 07:03:24;;;;;;;1.00;0.70;;;9.80;65.70;;;;;;4954448;28;20476;-62
2023/12/25 07:05:50;;;;;;;1.08;0.88;;;9.80;65.70;;;;;;4950282;28;20118;-61
2023/12/25 07:08:16;;;;;;;2.63;0.90;;;9.80;65.70;;;;;;4952470;28;20431;-62
2023/12/25 07:10:43;;;;;;;0.73;0.50;;;9.80;65.50;;;;;;4948168;28;20031;-62
2023/12/25 07:13:09;;;;;;;0.80;0.60;;;9.80;65.20;;;;;;4952376;28;20480;-61
2023/12/25 07:15:37;;;;;;;0.68;0.50;;;9.80;65.00;;;;;;4944916;28;20122;-61
2023/12/25 07:18:02;;;;;;;0.77;0.40;;;9.80;65.00;;;;;;4948680;28;20058;-61
2023/12/25 07:20:28;;;;;;;0.80;0.30;;;9.80;64.80;;;;;;4950081;28;20066;-62
2023/12/25 07:22:53;;;;;;;0.77;0.40;;;9.90;65.00;;;;;;4947894;28;20039;-62
2023/12/25 07:25:19;;;;;;;0.82;0.60;;;9.90;64.90;;;;;;4949989;28;20039;-63
2023/12/25 07:27:44;;;;;;;0.45;0.32;;;9.90;64.60;;;;;;4955934;28;20156;-61
2023/12/25 07:30:11;;;;;;;0.40;0.30;;;9.90;64.40;;;;;;4949022;28;20518;-62
2023/12/25 07:32:36;;;;;;;0.30;0.30;;;9.90;64.10;;;;;;4952247;28;20597;-61
2023/12/25 07:35:02;;;;;;;0.77;0.50;;;9.90;64.20;;;;;;4954844;28;20387;-60
2023/12/25 07:37:27;;;;;;;1.13;0.50;;;9.90;64.10;;;;;;4953734;28;20035;-61
2023/12/25 07:39:53;;;;;;;0.60;0.60;;;9.90;64.10;;;;;;4950153;28;20027;-62
2023/12/25 07:42:18;;;;;;;0.65;0.47;;;10.00;64.10;;;;;;4950885;28;20072;-62
2023/12/25 07:44:44;;;;;;;0.65;0.50;;;10.00;64.00;;;;;;4950952;28;20403;-62
2023/12/25 07:47:10;;;;;;;1.25;0.40;;;10.00;64.00;;;;;;4949698;28;20043;-62
2023/12/25 07:49:35;;;;;;;0.50;0.43;;;10.00;63.90;;;;;;4950713;28;20067;-62
2023/12/25 07:52:01;;;;;;;0.50;0.40;;;10.00;63.80;;;;;;4949881;28;20062;-62
2023/12/25 07:54:27;;;;;;;0.50;0.50;;;10.00;63.60;;;;;;4954403;28;20066;-63
2023/12/25 07:56:52;;;;;;;0.60;0.38;;;10.00;63.40;;;;;;4933419;28;20122;-63
2023/12/25 07:59:20;;;;;;;0.40;0.30;;;10.00;63.40;;;;;;4940080;28;20399;-63
2023/12/25 08:01:46;;;;;;;0.60;0.43;;;10.00;63.30;;;;;;4943423;28;20044;-63
2023/12/25 08:04:11;;;;;;;0.50;0.43;;;10.00;63.10;;;;;;4948402;28;20050;-63
2023/12/25 08:06:37;;;;;;;0.50;0.50;;;10.10;62.90;;;;;;4946773;28;20490;-63
2023/12/25 08:09:02;;;;;;;0.60;0.45;;;10.10;62.90;;;;;;4942242;28;20038;-62
2023/12/25 08:11:28;;;;;;;0.82;0.60;;;10.10;62.90;;;;;;4943609;28;20098;-63
2023/12/25 08:13:54;;;;;;;0.95;0.45;;;10.10;62.70;;;;;;4945819;28;20039;-62
2023/12/25 08:16:19;;;;;;;1.50;1.40;;;10.10;62.30;;;;;;4945738;28;20407;-62
2023/12/25 08:18:45;;;;;;;3.28;2.45;;;10.10;62.20;;;;;;4945685;28;20035;-63
2023/12/25 08:21:11;;;;;;;1.58;1.02;;;10.20;61.90;;;;;;4945309;28;20075;-63
2023/12/25 08:23:36;;;;;;;1.20;0.93;;;10.20;61.80;;;;;;4948836;28;20747;-63
2023/12/25 08:26:02;;;;;;;0.70;0.60;;;10.20;61.70;;;;;;4944263;28;20050;-62
2023/12/25 08:28:27;;;;;;;1.20;1.10;;;10.20;61.50;;;;;;4940084;28;20073;-62
2023/12/25 08:30:53;;;;;;;0.80;0.80;;;10.20;61.30;;;;;;4933918;28;20027;-62
2023/12/25 08:33:18;;;;;;;0.50;0.40;;;10.20;61.00;;;;;;4948527;28;20046;-62
2023/12/25 08:35:45;;;;;;;0.75;0.55;;;10.30;60.80;;;;;;4945965;28;20039;-61
2023/12/25 08:38:11;;;;;;;0.60;0.43;;;10.30;60.50;;;;;;4947206;28;20182;-63
2023/12/25 08:40:37;;;;;;;0.70;0.50;;;10.30;60.10;;;;;;4947417;28;20537;-62
2023/12/25 08:43:02;;;;;;;0.40;0.30;;;10.30;60.30;;;;;;4946839;28;20027;-62
2023/12/25 08:45:28;;;;;;;0.73;0.30;;;10.40;60.10;;;;;;4947998;28;20042;-59
2023/12/25 08:47:53;;;;;;;0.50;0.50;;;10.40;59.90;;;;;;4948487;28;20118;-60
2023/12/25 08:50:19;;;;;;;0.35;0.30;;;10.40;59.60;;;;;;4949171;28;20042;-62
2023/12/25 08:52:45;;;;;;;0.70;0.40;;;10.40;59.40;;;;;;4945444;28;20086;-62
2023/12/25 08:55:10;;;;;;;1.65;0.40;;;10.50;59.20;;;;;;4942442;28;20090;-62
2023/12/25 08:57:36;;;;;;;0.45;0.40;;;10.50;59.40;;;;;;4946044;28;20031;-62
2023/12/25 09:00:06;;;;;;;0.50;0.30;;;10.50;59.00;;;;;;4946232;28;20055;-63
2023/12/25 09:02:32;;;;;;;0.90;0.30;;;10.60;58.80;;;;;;4940480;28;20495;-62
2023/12/25 09:04:57;;;;;;;0.60;0.40;;;10.60;59.70;;;;;;4946521;28;20747;-61
2023/12/25 09:07:23;;;;;;;0.40;0.40;;;10.60;58.80;;;;;;4945254;28;20078;-61
2023/12/25 09:09:49;;;;;;;0.30;0.30;;;10.60;58.60;;;;;;4942281;28;20221;-62
2023/12/25 09:12:14;;;;;;;0.50;0.40;;;10.60;58.20;;;;;;4938300;28;20093;-61
2023/12/25 09:14:40;;;;;;;0.50;0.40;;;10.70;58.10;;;;;;4947846;28;20054;-62
2023/12/25 09:17:06;;;;;;;0.40;0.30;;;10.70;58.00;;;;;;4943894;28;20058;-60
2023/12/25 09:19:31;;;;;;;0.73;0.40;;;10.80;58.10;;;;;;4944296;28;20050;-63
2023/12/25 09:21:58;;;;;;;0.30;0.30;;;10.80;58.00;;;;;;4943026;28;20765;-62
2023/12/25 09:24:24;;;;;;;0.30;0.30;;;10.80;57.60;;;;;;4944640;28;20256;-61
2023/12/25 09:26:51;;;;;;;0.40;0.35;;;10.80;57.20;;;;;;4945192;28;20042;-61
2023/12/25 09:29:17;;;;;;;0.47;0.32;;;10.80;57.30;;;;;;4940908;28;20043;-62
2023/12/25 09:31:42;;;;;;;0.47;0.40;;;10.90;57.20;;;;;;4950209;28;20035;-61
2023/12/25 09:34:08;;;;;;;0.40;0.40;;;10.90;57.30;;;;;;4947256;28;20084;-62
2023/12/25 09:36:33;;;;;;;0.85;0.73;;;10.90;57.10;;;;;;4949119;28;20462;-62
2023/12/25 09:38:59;;;;;;;0.50;0.30;;;10.90;56.40;;;;;;4948191;28;20097;-62
2023/12/25 09:41:25;;;;;;;0.40;0.30;;;10.90;56.40;;;;;;4947272;28;20032;-60
2023/12/25 09:43:53;;;;;;;0.63;0.30;;;11.00;56.60;;;;;;4946308;28;20241;-61
2023/12/25 09:46:19;;;;;;;0.82;0.40;;;11.00;56.60;;;;;;4946095;28;20038;-61
2023/12/25 09:48:47;;;;;;;0.40;0.38;;;11.00;56.10;;;;;;4945418;28;20020;-60
2023/12/25 09:51:16;;;;;;;0.45;0.30;;;11.00;56.00;;;;;;4946450;28;20038;-62
2023/12/25 09:53:43;;;;;;;0.30;0.30;;;11.00;55.70;;;;;;4949036;28;20455;-61
2023/12/25 09:56:11;;;;;;;0.57;0.30;;;11.10;55.90;;;;;;4947351;28;20039;-60
2023/12/25 09:58:38;;;;;;;0.70;0.40;;;11.10;55.70;;;;;;4946976;28;20040;-61
2023/12/25 10:01:04;;;;;;;0.50;0.40;;;11.20;55.00;;;;;;4948943;28;20040;-62
2023/12/25 10:03:33;;;;;;;0.80;0.40;;;11.10;55.00;;;;;;4949754;28;20045;-62
2023/12/25 10:05:59;;;;;;;0.40;0.30;;;11.20;55.40;;;;;;4948957;28;20050;-61
2023/12/25 10:08:24;;;;;;;0.30;0.30;;;11.20;55.40;;;;;;4945712;28;20039;-62
2023/12/25 10:10:56;;;;;;;0.65;0.50;;;11.30;55.10;;;;;;4946219;28;20035;-62
2023/12/25 10:13:25;;;;;;;0.95;0.40;;;11.30;54.80;;;;;;4946453;28;20066;-62
2023/12/25 10:15:50;;;;;;;1.00;0.40;;;11.30;54.20;;;;;;4947249;28;20043;-62
2023/12/25 10:18:22;;;;;;;0.50;0.30;;;11.30;54.60;;;;;;4948491;28;20523;-60
2023/12/25 10:20:58;;;;;;;0.63;0.30;;;11.40;54.60;;;;;;4946425;28;20502;-61
2023/12/25 10:23:31;;;;;;;1.95;0.40;;;11.40;54.20;;;;;;4946712;28;20040;-61
2023/12/25 10:25:58;;;;;;;0.80;0.60;;;11.50;54.60;;;;;;4947953;28;20374;-62
2023/12/25 10:28:28;;;;;;;0.52;0.45;;;11.50;54.70;;;;;;4945986;28;20055;-62
2023/12/25 10:31:07;;;;;;;0.77;0.50;;;11.50;53.70;;;;;;4947582;28;20046;-62
2023/12/25 10:33:35;;;;;;;0.73;0.50;;;11.60;53.80;;;;;;4947034;28;20043;-62
2023/12/25 10:36:04;;;;;;;0.70;0.40;;;11.60;54.20;;;;;;4947317;28;20046;-62
2023/12/25 10:38:38;;;;;;;1.95;0.40;;;11.70;54.10;;;;;;4947518;28;20066;-61
2023/12/25 10:41:20;;;;;;;1.10;0.50;;;11.70;54.00;;;;;;4946355;28;20035;-63
2023/12/25 10:43:54;;;;;;;1.00;0.60;;;11.80;52.90;;;;;;4932895;28;20039;-62
2023/12/25 10:46:24;;;;;;;0.88;0.47;;;11.80;53.80;;;;;;4939559;28;20047;-61
2023/12/25 10:48:51;;;;;;;0.65;0.40;;;11.90;53.80;;;;;;4944465;28;20043;-63
2023/12/25 10:51:35;;;;;;;1.08;0.60;;;11.90;54.10;;;;;;4941348;28;20035;-62
2023/12/25 10:54:05;;;;;;;1.08;0.52;;;12.00;53.40;;;;;;4946347;28;20134;-61
2023/12/25 10:56:32;;;;;;;1.00;0.57;;;12.00;54.40;;;;;;4948311;28;20032;-61
2023/12/25 10:59:03;;;;;;;0.95;0.45;;;12.10;54.10;;;;;;4950028;28;20031;-61
2023/12/25 11:01:31;;;;;;;1.08;0.50;;;12.10;53.80;;;;;;4950355;28;20044;-62
2023/12/25 11:03:57;;;;;;;2.38;0.40;;;12.20;54.10;;;;;;4951812;28;20034;-61
2023/12/25 11:06:23;;;;;;;0.65;0.52;;;12.30;53.70;;;;;;4949500;28;20059;-62
2023/12/25 11:08:49;;;;;;;0.43;0.43;;;12.30;53.90;;;;;;4949860;28;20054;-62
2023/12/25 11:11:15;;;;;;;0.85;0.35;;;12.40;53.30;;;;;;4949307;28;20043;-62
2023/12/25 11:13:41;;;;;;;0.40;0.38;;;12.40;53.10;;;;;;4951856;28;20038;-62
2023/12/25 11:16:08;;;;;;;0.60;0.40;;;12.40;53.30;;;;;;4950327;28;20028;-62
2023/12/25 11:18:37;;;;;;;0.73;0.40;;;12.50;53.00;;;;;;4951090;28;20095;-62
2023/12/25 11:21:05;;;;;;;0.70;0.40;;;12.50;53.40;;;;;;4949446;28;20031;-63
2023/12/25 11:23:41;;;;;;;0.35;0.20;;;12.50;53.50;;;;;;4949521;28;20119;-63
2023/12/25 11:26:07;;;;;;;0.45;0.43;;;12.50;52.90;;;;;;4950527;28;20540;-61
2023/12/25 11:28:40;;;;;;;0.50;0.40;;;12.50;53.60;;;;;;4950931;28;20039;-62
2023/12/25 11:31:07;;;;;;;1.02;0.40;;;12.50;53.00;;;;;;4950817;28;20039;-63
2023/12/25 11:33:42;;;;;;;1.05;0.43;;;12.50;53.50;;;;;;4949628;28;20126;-62
2023/12/25 11:36:15;;;;;;;0.40;0.30;;;12.50;52.90;;;;;;4945386;28;20399;-63
2023/12/25 11:38:45;;;;;;;0.40;0.30;;;12.50;53.00;;;;;;4948529;28;20040;-62
2023/12/25 11:41:18;;;;;;;0.50;0.40;;;12.50;53.30;;;;;;4951960;28;20110;-61
2023/12/25 11:43:46;;;;;;;0.65;0.45;;;12.50;52.60;;;;;;4950029;28;20027;-62
2023/12/25 11:46:19;;;;;;;1.35;0.70;;;12.50;53.20;;;;;;4951469;28;20035;-62
2023/12/25 11:48:47;;;;;;;0.80;0.80;;;12.40;53.50;;;;;;4948932;28;20054;-63
2023/12/25 11:51:25;;;;;;;0.40;0.40;;;12.40;54.30;;;;;;4949769;28;20043;-62
2023/12/25 11:53:58;;;;;;;0.50;0.32;;;12.50;53.20;;;;;;4950359;28;20027;-61
2023/12/25 11:56:24;;;;;;;2.05;0.77;;;12.50;53.80;;;;;;4948910;28;20396;-61
2023/12/25 11:58:52;;;;;;;1.15;0.38;;;12.50;53.60;;;;;;4949392;28;20034;-62
2023/12/25 12:01:18;;;;;;;1.20;0.30;;;12.50;53.00;;;;;;4948656;28;20035;-63
2023/12/25 12:03:49;;;;;;;0.40;0.30;;;12.50;53.60;;;;;;4947631;28;20090;-60
2023/12/25 12:06:16;;;;;;;0.50;0.40;;;12.50;53.40;;;;;;4949114;28;20042;-62
2023/12/25 12:08:42;;;;;;;0.50;0.40;;;12.50;53.90;;;;;;4949232;28;20035;-62
2023/12/25 12:11:09;;;;;;;0.40;0.40;;;12.60;54.20;;;;;;4947784;28;20042;-61
2023/12/25 12:13:36;;;;;;;0.88;0.47;;;12.60;55.00;;;;;;4948571;28;20047;-63
2023/12/25 12:16:02;;;;;;;1.77;0.50;;;12.60;54.40;;;;;;4952127;28;20027;-63
2023/12/25 12:18:28;;;;;;;0.70;0.40;;;12.60;54.20;;;;;;4949717;28;20042;-62
2023/12/25 12:20:57;;;;;;;1.27;0.30;;;12.60;54.40;;;;;;4948218;28;20027;-61
2023/12/25 12:23:22;;;;;;;0.73;0.30;;;12.70;54.30;;;;;;4948442;28;20113;-59
2023/12/25 12:25:48;;;;;;;0.40;0.30;;;12.70;54.40;;;;;;4950212;28;20091;-62
2023/12/25 12:28:15;;;;;;;0.40;0.28;;;12.70;54.60;;;;;;4949588;28;20500;-63
2023/12/25 12:30:40;;;;;;;0.40;0.25;;;12.70;54.90;;;;;;4947802;28;20036;-61
2023/12/25 12:33:08;;;;;;;1.33;0.40;;;12.80;54.70;;;;;;4949524;28;20054;-62
2023/12/25 12:35:34;;;;;;;1.75;0.50;;;12.80;54.60;;;;;;4947134;28;20110;-62
2023/12/25 12:38:00;;;;;;;0.77;0.38;;;12.90;54.70;;;;;;4949055;28;20076;-62
2023/12/25 12:40:27;;;;;;;0.30;0.30;;;12.90;55.00;;;;;;4947441;28;20215;-59
2023/12/25 12:42:53;;;;;;;0.30;0.30;;;12.90;55.00;;;;;;4947813;28;20031;-61